sensor_id;sensor_type;location;lat;lon;timestamp;P1;durP1;ratioP1;P2;durP2;ratioP2
67049;SDS011;53955;52.442;13.284;2023-05-29T00:01:17;7.65;;;3.55;;
67049;SDS011;53955;52.442;13.284;2023-05-29T00:03:46;10.07;;;3.67;;
67049;SDS011;53955;52.442;13.284;2023-05-29T00:06:12;10.70;;;3.67;;
67049;SDS011;53955;52.442;13.284;2023-05-29T00:08:40;7.45;;;3.33;;
67049;SDS011;53955;52.442;13.284;2023-05-29T00:11:07;8.43;;;3.37;;
67049;SDS011;53955;52.442;13.284;2023-05-29T00:13:34;5.65;;;3.08;;
67049;SDS011;53955;52.442;13.284;2023-05-29T00:16:00;9.07;;;3.22;;
67049;SDS011;53955;52.442;13.284;2023-05-29T00:18:28;8.18;;;3.10;;
67049;SDS011;53955;52.442;13.284;2023-05-29T00:20:55;6.15;;;2.83;;
67049;SDS011;53955;52.442;13.284;2023-05-29T00:23:21;8.00;;;3.40;;
67049;SDS011;53955;52.442;13.284;2023-05-29T00:25:49;8.63;;;3.50;;
67049;SDS011;53955;52.442;13.284;2023-05-29T00:28:16;7.35;;;3.13;;
67049;SDS011;53955;52.442;13.284;2023-05-29T00:30:42;8.50;;;3.58;;
67049;SDS011;53955;52.442;13.284;2023-05-29T00:33:09;9.13;;;3.47;;
67049;SDS011;53955;52.442;13.284;2023-05-29T00:35:36;5.70;;;2.95;;
67049;SDS011;53955;52.442;13.284;2023-05-29T00:38:02;10.02;;;3.67;;
67049;SDS011;53955;52.442;13.284;2023-05-29T00:40:29;7.47;;;3.03;;
67049;SDS011;53955;52.442;13.284;2023-05-29T00:42:57;6.50;;;2.90;;
67049;SDS011;53955;52.442;13.284;2023-05-29T00:45:23;5.50;;;2.50;;
67049;SDS011;53955;52.442;13.284;2023-05-29T00:47:51;5.97;;;2.97;;
67049;SDS011;53955;52.442;13.284;2023-05-29T00:50:19;10.27;;;3.70;;
67049;SDS011;53955;52.442;13.284;2023-05-29T00:52:48;6.78;;;3.38;;
67049;SDS011;53955;52.442;13.284;2023-05-29T00:55:16;7.57;;;3.42;;
67049;SDS011;53955;52.442;13.284;2023-05-29T00:57:42;8.30;;;3.13;;
67049;SDS011;53955;52.442;13.284;2023-05-29T01:00:12;9.73;;;3.30;;
67049;SDS011;53955;52.442;13.284;2023-05-29T01:02:39;9.05;;;3.30;;
67049;SDS011;53955;52.442;13.284;2023-05-29T01:05:09;7.32;;;2.95;;
67049;SDS011;53955;52.442;13.284;2023-05-29T01:07:36;8.10;;;3.60;;
67049;SDS011;53955;52.442;13.284;2023-05-29T01:10:03;8.10;;;3.80;;
67049;SDS011;53955;52.442;13.284;2023-05-29T01:12:33;5.05;;;2.53;;
67049;SDS011;53955;52.442;13.284;2023-05-29T01:15:08;9.48;;;3.40;;
67049;SDS011;53955;52.442;13.284;2023-05-29T01:17:46;9.63;;;3.10;;
67049;SDS011;53955;52.442;13.284;2023-05-29T01:20:23;6.63;;;3.03;;
67049;SDS011;53955;52.442;13.284;2023-05-29T01:23:06;6.28;;;3.03;;
67049;SDS011;53955;52.442;13.284;2023-05-29T01:25:42;6.68;;;3.15;;
67049;SDS011;53955;52.442;13.284;2023-05-29T01:28:20;7.30;;;2.85;;
67049;SDS011;53955;52.442;13.284;2023-05-29T01:30:50;7.95;;;3.08;;
67049;SDS011;53955;52.442;13.284;2023-05-29T01:33:18;6.95;;;2.92;;
67049;SDS011;53955;52.442;13.284;2023-05-29T01:35:44;6.40;;;3.40;;
67049;SDS011;53955;52.442;13.284;2023-05-29T01:38:11;7.70;;;3.10;;
67049;SDS011;53955;52.442;13.284;2023-05-29T01:40:38;9.48;;;3.00;;
67049;SDS011;53955;52.442;13.284;2023-05-29T01:43:04;6.95;;;2.83;;
67049;SDS011;53955;52.442;13.284;2023-05-29T01:45:33;7.93;;;3.08;;
67049;SDS011;53955;52.442;13.284;2023-05-29T01:48:01;6.38;;;3.10;;
67049;SDS011;53955;52.442;13.284;2023-05-29T01:50:27;6.78;;;3.30;;
67049;SDS011;53955;52.442;13.284;2023-05-29T01:52:55;9.30;;;3.13;;
67049;SDS011;53955;52.442;13.284;2023-05-29T01:55:21;5.68;;;2.95;;
67049;SDS011;53955;52.442;13.284;2023-05-29T01:57:48;8.32;;;2.85;;
67049;SDS011;53955;52.442;13.284;2023-05-29T02:00:16;11.45;;;2.85;;
67049;SDS011;53955;52.442;13.284;2023-05-29T02:02:45;7.97;;;3.20;;
67049;SDS011;53955;52.442;13.284;2023-05-29T02:05:11;6.18;;;3.13;;
67049;SDS011;53955;52.442;13.284;2023-05-29T02:07:38;7.40;;;2.90;;
67049;SDS011;53955;52.442;13.284;2023-05-29T02:10:05;9.10;;;3.33;;
67049;SDS011;53955;52.442;13.284;2023-05-29T02:12:32;5.07;;;2.90;;
67049;SDS011;53955;52.442;13.284;2023-05-29T02:14:58;6.95;;;2.97;;
67049;SDS011;53955;52.442;13.284;2023-05-29T02:17:25;7.93;;;3.00;;
67049;SDS011;53955;52.442;13.284;2023-05-29T02:19:53;4.72;;;2.60;;
67049;SDS011;53955;52.442;13.284;2023-05-29T02:22:20;6.78;;;3.00;;
67049;SDS011;53955;52.442;13.284;2023-05-29T02:24:46;8.63;;;3.13;;
67049;SDS011;53955;52.442;13.284;2023-05-29T02:27:13;6.50;;;3.50;;
67049;SDS011;53955;52.442;13.284;2023-05-29T02:29:39;10.68;;;3.22;;
67049;SDS011;53955;52.442;13.284;2023-05-29T02:32:06;7.28;;;2.72;;
67049;SDS011;53955;52.442;13.284;2023-05-29T02:34:33;5.57;;;2.90;;
67049;SDS011;53955;52.442;13.284;2023-05-29T02:37:01;8.23;;;3.38;;
67049;SDS011;53955;52.442;13.284;2023-05-29T02:39:27;5.97;;;2.65;;
67049;SDS011;53955;52.442;13.284;2023-05-29T02:41:54;8.68;;;3.05;;
67049;SDS011;53955;52.442;13.284;2023-05-29T02:44:21;9.18;;;3.17;;
67049;SDS011;53955;52.442;13.284;2023-05-29T02:46:47;6.70;;;3.08;;
67049;SDS011;53955;52.442;13.284;2023-05-29T02:49:14;7.57;;;3.30;;
67049;SDS011;53955;52.442;13.284;2023-05-29T02:51:40;8.32;;;3.38;;
67049;SDS011;53955;52.442;13.284;2023-05-29T02:54:08;5.43;;;2.90;;
67049;SDS011;53955;52.442;13.284;2023-05-29T02:56:37;7.38;;;3.28;;
67049;SDS011;53955;52.442;13.284;2023-05-29T02:59:04;8.50;;;3.42;;
67049;SDS011;53955;52.442;13.284;2023-05-29T03:01:30;6.90;;;3.15;;
67049;SDS011;53955;52.442;13.284;2023-05-29T03:03:58;10.80;;;3.20;;
67049;SDS011;53955;52.442;13.284;2023-05-29T03:06:25;7.90;;;3.17;;
67049;SDS011;53955;52.442;13.284;2023-05-29T03:08:51;8.00;;;3.30;;
67049;SDS011;53955;52.442;13.284;2023-05-29T03:11:19;8.32;;;3.47;;
67049;SDS011;53955;52.442;13.284;2023-05-29T03:13:48;6.93;;;3.03;;
67049;SDS011;53955;52.442;13.284;2023-05-29T03:16:15;7.85;;;3.85;;
67049;SDS011;53955;52.442;13.284;2023-05-29T03:18:42;8.30;;;3.67;;
67049;SDS011;53955;52.442;13.284;2023-05-29T03:21:08;7.68;;;3.30;;
67049;SDS011;53955;52.442;13.284;2023-05-29T03:23:35;6.65;;;3.30;;
67049;SDS011;53955;52.442;13.284;2023-05-29T03:26:02;8.98;;;3.55;;
67049;SDS011;53955;52.442;13.284;2023-05-29T03:28:30;10.23;;;3.22;;
67049;SDS011;53955;52.442;13.284;2023-05-29T03:30:56;6.28;;;3.38;;
67049;SDS011;53955;52.442;13.284;2023-05-29T03:33:23;9.77;;;4.57;;
67049;SDS011;53955;52.442;13.284;2023-05-29T03:35:52;9.32;;;3.95;;
67049;SDS011;53955;52.442;13.284;2023-05-29T03:38:20;7.07;;;3.17;;
67049;SDS011;53955;52.442;13.284;2023-05-29T04:17:28;6.68;;;3.20;;
67049;SDS011;53955;52.442;13.284;2023-05-29T04:19:56;5.85;;;2.90;;
67049;SDS011;53955;52.442;13.284;2023-05-29T04:22:22;8.20;;;3.63;;
67049;SDS011;53955;52.442;13.284;2023-05-29T04:24:49;8.43;;;3.50;;
67049;SDS011;53955;52.442;13.284;2023-05-29T04:27:15;8.88;;;3.50;;
67049;SDS011;53955;52.442;13.284;2023-05-29T04:29:42;8.63;;;4.15;;
67049;SDS011;53955;52.442;13.284;2023-05-29T04:32:09;7.10;;;2.90;;
67049;SDS011;53955;52.442;13.284;2023-05-29T04:34:36;6.00;;;2.88;;
67049;SDS011;53955;52.442;13.284;2023-05-29T04:37:05;6.90;;;2.95;;
67049;SDS011;53955;52.442;13.284;2023-05-29T04:39:32;6.90;;;2.72;;
67049;SDS011;53955;52.442;13.284;2023-05-29T04:41:59;7.22;;;3.17;;
67049;SDS011;53955;52.442;13.284;2023-05-29T04:44:25;7.60;;;3.45;;
67049;SDS011;53955;52.442;13.284;2023-05-29T04:46:54;5.43;;;3.00;;
67049;SDS011;53955;52.442;13.284;2023-05-29T04:49:21;7.65;;;2.85;;
67049;SDS011;53955;52.442;13.284;2023-05-29T04:51:48;6.97;;;3.00;;
67049;SDS011;53955;52.442;13.284;2023-05-29T04:54:18;5.97;;;3.00;;
67049;SDS011;53955;52.442;13.284;2023-05-29T04:56:45;6.60;;;3.08;;
67049;SDS011;53955;52.442;13.284;2023-05-29T04:59:12;8.80;;;3.47;;
67049;SDS011;53955;52.442;13.284;2023-05-29T05:01:39;8.38;;;3.28;;
67049;SDS011;53955;52.442;13.284;2023-05-29T05:04:08;6.05;;;2.88;;
67049;SDS011;53955;52.442;13.284;2023-05-29T05:06:35;5.32;;;2.72;;
67049;SDS011;53955;52.442;13.284;2023-05-29T05:09:02;7.20;;;2.85;;
67049;SDS011;53955;52.442;13.284;2023-05-29T05:11:30;7.10;;;3.35;;
67049;SDS011;53955;52.442;13.284;2023-05-29T05:13:57;7.88;;;3.03;;
67049;SDS011;53955;52.442;13.284;2023-05-29T05:16:23;7.75;;;3.00;;
67049;SDS011;53955;52.442;13.284;2023-05-29T05:18:50;7.70;;;2.80;;
67049;SDS011;53955;52.442;13.284;2023-05-29T05:21:17;5.00;;;2.70;;
67049;SDS011;53955;52.442;13.284;2023-05-29T05:23:45;4.22;;;2.28;;
67049;SDS011;53955;52.442;13.284;2023-05-29T05:26:11;7.00;;;3.42;;
67049;SDS011;53955;52.442;13.284;2023-05-29T05:28:39;8.60;;;3.17;;
67049;SDS011;53955;52.442;13.284;2023-05-29T05:31:06;5.75;;;2.60;;
67049;SDS011;53955;52.442;13.284;2023-05-29T05:33:32;6.78;;;2.63;;
67049;SDS011;53955;52.442;13.284;2023-05-29T05:38:25;5.45;;;2.38;;
67049;SDS011;53955;52.442;13.284;2023-05-29T05:40:52;5.93;;;2.25;;
67049;SDS011;53955;52.442;13.284;2023-05-29T05:43:20;4.88;;;2.10;;
67049;SDS011;53955;52.442;13.284;2023-05-29T05:45:48;3.90;;;2.00;;
67049;SDS011;53955;52.442;13.284;2023-05-29T05:48:15;4.43;;;1.92;;
67049;SDS011;53955;52.442;13.284;2023-05-29T05:50:42;3.92;;;1.52;;
67049;SDS011;53955;52.442;13.284;2023-05-29T05:53:08;6.97;;;2.30;;
67049;SDS011;53955;52.442;13.284;2023-05-29T05:55:35;4.75;;;1.98;;
67049;SDS011;53955;52.442;13.284;2023-05-29T05:58:01;3.85;;;1.40;;
67049;SDS011;53955;52.442;13.284;2023-05-29T06:00:28;4.03;;;1.75;;
67049;SDS011;53955;52.442;13.284;2023-05-29T06:02:56;4.15;;;1.90;;
67049;SDS011;53955;52.442;13.284;2023-05-29T06:05:22;2.72;;;1.40;;
67049;SDS011;53955;52.442;13.284;2023-05-29T06:07:49;2.95;;;1.45;;
67049;SDS011;53955;52.442;13.284;2023-05-29T06:10:16;4.13;;;1.65;;
67049;SDS011;53955;52.442;13.284;2023-05-29T06:12:44;5.55;;;1.60;;
67049;SDS011;53955;52.442;13.284;2023-05-29T06:15:10;3.45;;;1.48;;
67049;SDS011;53955;52.442;13.284;2023-05-29T06:17:37;3.03;;;1.20;;
67049;SDS011;53955;52.442;13.284;2023-05-29T06:20:06;4.63;;;1.60;;
67049;SDS011;53955;52.442;13.284;2023-05-29T06:22:35;4.00;;;1.58;;
67049;SDS011;53955;52.442;13.284;2023-05-29T06:25:01;3.83;;;1.52;;
67049;SDS011;53955;52.442;13.284;2023-05-29T06:27:28;3.25;;;1.30;;
67049;SDS011;53955;52.442;13.284;2023-05-29T06:29:55;3.78;;;1.50;;
67049;SDS011;53955;52.442;13.284;2023-05-29T06:32:21;2.40;;;1.33;;
67049;SDS011;53955;52.442;13.284;2023-05-29T06:34:48;4.75;;;1.40;;
67049;SDS011;53955;52.442;13.284;2023-05-29T06:37:16;5.07;;;1.60;;
67049;SDS011;53955;52.442;13.284;2023-05-29T06:39:44;2.83;;;1.08;;
67049;SDS011;53955;52.442;13.284;2023-05-29T06:42:11;2.17;;;1.27;;
67049;SDS011;53955;52.442;13.284;2023-05-29T06:44:37;2.92;;;1.30;;
67049;SDS011;53955;52.442;13.284;2023-05-29T06:47:05;4.28;;;1.52;;
67049;SDS011;53955;52.442;13.284;2023-05-29T06:49:31;8.15;;;1.35;;
67049;SDS011;53955;52.442;13.284;2023-05-29T06:51:58;2.45;;;1.40;;
67049;SDS011;53955;52.442;13.284;2023-05-29T06:54:26;3.40;;;1.60;;
67049;SDS011;53955;52.442;13.284;2023-05-29T06:56:52;2.75;;;1.45;;
67049;SDS011;53955;52.442;13.284;2023-05-29T06:59:19;4.47;;;1.38;;
67049;SDS011;53955;52.442;13.284;2023-05-29T07:01:46;3.90;;;1.60;;
67049;SDS011;53955;52.442;13.284;2023-05-29T07:04:13;3.75;;;1.60;;
67049;SDS011;53955;52.442;13.284;2023-05-29T07:06:39;2.70;;;1.30;;
67049;SDS011;53955;52.442;13.284;2023-05-29T07:09:06;3.25;;;1.45;;
67049;SDS011;53955;52.442;13.284;2023-05-29T07:11:35;2.90;;;1.27;;
67049;SDS011;53955;52.442;13.284;2023-05-29T07:14:01;4.00;;;1.30;;
67049;SDS011;53955;52.442;13.284;2023-05-29T07:16:28;3.42;;;1.40;;
67049;SDS011;53955;52.442;13.284;2023-05-29T07:18:54;4.30;;;1.55;;
67049;SDS011;53955;52.442;13.284;2023-05-29T07:21:21;1.88;;;1.00;;
67049;SDS011;53955;52.442;13.284;2023-05-29T07:23:47;2.65;;;1.60;;
67049;SDS011;53955;52.442;13.284;2023-05-29T07:26:14;4.50;;;1.73;;
67049;SDS011;53955;52.442;13.284;2023-05-29T07:28:42;2.83;;;1.30;;
67049;SDS011;53955;52.442;13.284;2023-05-29T07:31:09;2.75;;;1.50;;
67049;SDS011;53955;52.442;13.284;2023-05-29T07:33:35;3.80;;;1.65;;
67049;SDS011;53955;52.442;13.284;2023-05-29T07:36:02;5.65;;;1.85;;
67049;SDS011;53955;52.442;13.284;2023-05-29T07:38:29;4.97;;;1.95;;
67049;SDS011;53955;52.442;13.284;2023-05-29T07:40:55;3.67;;;1.40;;
67049;SDS011;53955;52.442;13.284;2023-05-29T07:43:22;4.55;;;1.60;;
67049;SDS011;53955;52.442;13.284;2023-05-29T07:45:50;4.72;;;1.70;;
67049;SDS011;53955;52.442;13.284;2023-05-29T07:48:17;3.60;;;1.50;;
67049;SDS011;53955;52.442;13.284;2023-05-29T07:50:43;4.65;;;1.70;;
67049;SDS011;53955;52.442;13.284;2023-05-29T07:53:10;4.13;;;1.45;;
67049;SDS011;53955;52.442;13.284;2023-05-29T07:55:38;2.72;;;1.60;;
67049;SDS011;53955;52.442;13.284;2023-05-29T07:58:04;3.53;;;1.42;;
67049;SDS011;53955;52.442;13.284;2023-05-29T08:00:32;3.42;;;1.38;;
67049;SDS011;53955;52.442;13.284;2023-05-29T08:03:00;4.57;;;1.40;;
67049;SDS011;53955;52.442;13.284;2023-05-29T08:05:27;3.65;;;1.60;;
67049;SDS011;53955;52.442;13.284;2023-05-29T08:07:54;3.42;;;1.55;;
67049;SDS011;53955;52.442;13.284;2023-05-29T08:10:21;2.85;;;1.40;;
67049;SDS011;53955;52.442;13.284;2023-05-29T08:12:47;2.40;;;1.30;;
67049;SDS011;53955;52.442;13.284;2023-05-29T08:15:15;3.38;;;1.80;;
67049;SDS011;53955;52.442;13.284;2023-05-29T08:17:42;5.57;;;2.20;;
67049;SDS011;53955;52.442;13.284;2023-05-29T08:20:10;5.00;;;1.80;;
67049;SDS011;53955;52.442;13.284;2023-05-29T08:22:37;2.92;;;1.80;;
67049;SDS011;53955;52.442;13.284;2023-05-29T08:25:04;3.10;;;1.40;;
67049;SDS011;53955;52.442;13.284;2023-05-29T08:27:31;3.70;;;1.65;;
67049;SDS011;53955;52.442;13.284;2023-05-29T08:29:57;4.45;;;1.63;;
67049;SDS011;53955;52.442;13.284;2023-05-29T08:32:25;3.25;;;1.92;;
67049;SDS011;53955;52.442;13.284;2023-05-29T08:34:51;4.30;;;1.77;;
67049;SDS011;53955;52.442;13.284;2023-05-29T08:37:20;5.25;;;1.73;;
67049;SDS011;53955;52.442;13.284;2023-05-29T08:39:46;6.63;;;1.95;;
67049;SDS011;53955;52.442;13.284;2023-05-29T08:42:13;5.72;;;1.75;;
67049;SDS011;53955;52.442;13.284;2023-05-29T08:44:47;7.20;;;2.17;;
67049;SDS011;53955;52.442;13.284;2023-05-29T08:47:14;4.25;;;1.98;;
67049;SDS011;53955;52.442;13.284;2023-05-29T08:49:45;4.28;;;2.05;;
67049;SDS011;53955;52.442;13.284;2023-05-29T08:52:16;5.25;;;1.90;;
67049;SDS011;53955;52.442;13.284;2023-05-29T08:54:46;4.95;;;1.80;;
67049;SDS011;53955;52.442;13.284;2023-05-29T08:57:12;4.18;;;1.80;;
67049;SDS011;53955;52.442;13.284;2023-05-29T08:59:41;6.50;;;2.15;;
67049;SDS011;53955;52.442;13.284;2023-05-29T09:02:09;5.05;;;2.15;;
67049;SDS011;53955;52.442;13.284;2023-05-29T09:04:37;5.45;;;2.13;;
67049;SDS011;53955;52.442;13.284;2023-05-29T09:07:04;5.30;;;2.30;;
67049;SDS011;53955;52.442;13.284;2023-05-29T09:09:33;4.35;;;1.98;;
67049;SDS011;53955;52.442;13.284;2023-05-29T09:12:02;3.65;;;1.85;;
67049;SDS011;53955;52.442;13.284;2023-05-29T09:14:32;4.03;;;2.00;;
67049;SDS011;53955;52.442;13.284;2023-05-29T09:17:04;5.78;;;2.17;;
67049;SDS011;53955;52.442;13.284;2023-05-29T09:19:33;4.35;;;1.73;;
67049;SDS011;53955;52.442;13.284;2023-05-29T09:22:01;3.88;;;1.95;;
67049;SDS011;53955;52.442;13.284;2023-05-29T09:24:28;3.15;;;2.08;;
67049;SDS011;53955;52.442;13.284;2023-05-29T09:26:55;4.78;;;2.08;;
67049;SDS011;53955;52.442;13.284;2023-05-29T09:29:26;3.67;;;1.92;;
67049;SDS011;53955;52.442;13.284;2023-05-29T09:31:52;4.90;;;1.98;;
67049;SDS011;53955;52.442;13.284;2023-05-29T09:34:19;3.30;;;2.05;;
67049;SDS011;53955;52.442;13.284;2023-05-29T09:36:49;5.78;;;2.45;;
67049;SDS011;53955;52.442;13.284;2023-05-29T09:39:17;4.63;;;2.10;;
67049;SDS011;53955;52.442;13.284;2023-05-29T09:41:44;3.55;;;1.95;;
67049;SDS011;53955;52.442;13.284;2023-05-29T09:44:12;4.68;;;2.15;;
67049;SDS011;53955;52.442;13.284;2023-05-29T09:46:40;4.38;;;2.00;;
67049;SDS011;53955;52.442;13.284;2023-05-29T09:49:08;4.68;;;1.88;;
67049;SDS011;53955;52.442;13.284;2023-05-29T09:51:36;4.72;;;2.10;;
67049;SDS011;53955;52.442;13.284;2023-05-29T09:54:13;3.60;;;2.13;;
67049;SDS011;53955;52.442;13.284;2023-05-29T09:56:41;6.75;;;2.10;;
67049;SDS011;53955;52.442;13.284;2023-05-29T09:59:10;3.40;;;1.88;;
67049;SDS011;53955;52.442;13.284;2023-05-29T10:01:39;2.97;;;1.80;;
67049;SDS011;53955;52.442;13.284;2023-05-29T10:04:07;4.18;;;2.08;;
67049;SDS011;53955;52.442;13.284;2023-05-29T10:06:35;4.40;;;1.95;;
67049;SDS011;53955;52.442;13.284;2023-05-29T10:09:02;4.05;;;2.05;;
67049;SDS011;53955;52.442;13.284;2023-05-29T10:11:32;3.78;;;1.90;;
67049;SDS011;53955;52.442;13.284;2023-05-29T10:14:00;3.50;;;2.25;;
67049;SDS011;53955;52.442;13.284;2023-05-29T10:16:29;5.60;;;2.03;;
67049;SDS011;53955;52.442;13.284;2023-05-29T10:19:02;5.43;;;2.17;;
67049;SDS011;53955;52.442;13.284;2023-05-29T10:21:32;4.45;;;2.03;;
67049;SDS011;53955;52.442;13.284;2023-05-29T10:24:02;3.83;;;2.00;;
67049;SDS011;53955;52.442;13.284;2023-05-29T10:26:34;4.80;;;2.08;;
67049;SDS011;53955;52.442;13.284;2023-05-29T10:29:03;4.32;;;2.20;;
67049;SDS011;53955;52.442;13.284;2023-05-29T10:31:39;3.80;;;2.10;;
67049;SDS011;53955;52.442;13.284;2023-05-29T10:34:23;5.50;;;2.50;;
67049;SDS011;53955;52.442;13.284;2023-05-29T10:37:04;5.30;;;2.22;;
67049;SDS011;53955;52.442;13.284;2023-05-29T10:39:35;5.85;;;2.40;;
67049;SDS011;53955;52.442;13.284;2023-05-29T10:42:01;4.43;;;2.20;;
67049;SDS011;53955;52.442;13.284;2023-05-29T10:44:37;5.05;;;2.20;;
67049;SDS011;53955;52.442;13.284;2023-05-29T10:47:06;4.68;;;2.42;;
67049;SDS011;53955;52.442;13.284;2023-05-29T10:49:37;3.88;;;2.10;;
67049;SDS011;53955;52.442;13.284;2023-05-29T10:52:04;3.92;;;2.30;;
67049;SDS011;53955;52.442;13.284;2023-05-29T10:54:40;4.95;;;2.10;;
67049;SDS011;53955;52.442;13.284;2023-05-29T10:57:17;3.97;;;2.08;;
67049;SDS011;53955;52.442;13.284;2023-05-29T10:59:44;5.40;;;2.08;;
67049;SDS011;53955;52.442;13.284;2023-05-29T11:02:11;4.50;;;2.63;;
67049;SDS011;53955;52.442;13.284;2023-05-29T11:04:44;4.68;;;2.13;;
67049;SDS011;53955;52.442;13.284;2023-05-29T11:07:32;4.93;;;2.53;;
67049;SDS011;53955;52.442;13.284;2023-05-29T11:10:10;7.03;;;2.55;;
67049;SDS011;53955;52.442;13.284;2023-05-29T11:15:24;2.72;;;1.77;;
67049;SDS011;53955;52.442;13.284;2023-05-29T11:17:51;3.58;;;1.85;;
67049;SDS011;53955;52.442;13.284;2023-05-29T11:20:27;3.85;;;1.80;;
67049;SDS011;53955;52.442;13.284;2023-05-29T11:23:03;4.70;;;2.10;;
67049;SDS011;53955;52.442;13.284;2023-05-29T11:25:33;3.10;;;1.90;;
67049;SDS011;53955;52.442;13.284;2023-05-29T11:28:01;3.55;;;2.10;;
67049;SDS011;53955;52.442;13.284;2023-05-29T11:30:33;4.57;;;2.20;;
67049;SDS011;53955;52.442;13.284;2023-05-29T11:33:07;4.03;;;2.08;;
67049;SDS011;53955;52.442;13.284;2023-05-29T11:35:42;3.92;;;1.98;;
67049;SDS011;53955;52.442;13.284;2023-05-29T11:38:09;6.68;;;2.13;;
67049;SDS011;53955;52.442;13.284;2023-05-29T11:40:36;3.58;;;1.98;;
67049;SDS011;53955;52.442;13.284;2023-05-29T11:43:03;5.05;;;1.98;;
67049;SDS011;53955;52.442;13.284;2023-05-29T11:45:32;5.93;;;1.95;;
67049;SDS011;53955;52.442;13.284;2023-05-29T11:48:00;6.85;;;2.20;;
67049;SDS011;53955;52.442;13.284;2023-05-29T11:50:28;4.47;;;1.92;;
67049;SDS011;53955;52.442;13.284;2023-05-29T11:52:57;6.65;;;2.00;;
67049;SDS011;53955;52.442;13.284;2023-05-29T11:55:25;2.95;;;1.90;;
67049;SDS011;53955;52.442;13.284;2023-05-29T11:57:55;3.33;;;2.00;;
67049;SDS011;53955;52.442;13.284;2023-05-29T12:00:23;5.97;;;2.25;;
67049;SDS011;53955;52.442;13.284;2023-05-29T12:02:51;5.03;;;1.85;;
67049;SDS011;53955;52.442;13.284;2023-05-29T12:05:17;3.58;;;2.28;;
67049;SDS011;53955;52.442;13.284;2023-05-29T12:07:49;3.63;;;1.88;;
67049;SDS011;53955;52.442;13.284;2023-05-29T12:10:18;4.68;;;1.65;;
67049;SDS011;53955;52.442;13.284;2023-05-29T12:12:47;4.07;;;2.00;;
67049;SDS011;53955;52.442;13.284;2023-05-29T12:15:14;10.25;;;2.20;;
67049;SDS011;53955;52.442;13.284;2023-05-29T12:17:42;5.90;;;2.28;;
67049;SDS011;53955;52.442;13.284;2023-05-29T12:20:10;4.50;;;1.85;;
67049;SDS011;53955;52.442;13.284;2023-05-29T12:22:39;3.65;;;1.95;;
67049;SDS011;53955;52.442;13.284;2023-05-29T12:25:07;5.30;;;2.10;;
67049;SDS011;53955;52.442;13.284;2023-05-29T12:27:36;5.78;;;1.92;;
67049;SDS011;53955;52.442;13.284;2023-05-29T12:30:08;3.85;;;1.83;;
67049;SDS011;53955;52.442;13.284;2023-05-29T12:32:36;7.55;;;1.90;;
67049;SDS011;53955;52.442;13.284;2023-05-29T12:35:10;4.80;;;2.20;;
67049;SDS011;53955;52.442;13.284;2023-05-29T12:37:41;5.13;;;2.10;;
67049;SDS011;53955;52.442;13.284;2023-05-29T12:40:09;4.05;;;2.05;;
67049;SDS011;53955;52.442;13.284;2023-05-29T12:42:38;3.92;;;2.05;;
67049;SDS011;53955;52.442;13.284;2023-05-29T12:45:06;6.05;;;2.38;;
67049;SDS011;53955;52.442;13.284;2023-05-29T12:47:34;2.97;;;1.95;;
67049;SDS011;53955;52.442;13.284;2023-05-29T12:50:04;5.57;;;2.13;;
67049;SDS011;53955;52.442;13.284;2023-05-29T12:52:44;4.95;;;1.95;;
67049;SDS011;53955;52.442;13.284;2023-05-29T12:55:11;4.18;;;2.00;;
67049;SDS011;53955;52.442;13.284;2023-05-29T12:57:39;5.32;;;1.83;;
67049;SDS011;53955;52.442;13.284;2023-05-29T13:00:07;6.65;;;1.90;;
67049;SDS011;53955;52.442;13.284;2023-05-29T13:02:36;7.90;;;2.13;;
67049;SDS011;53955;52.442;13.284;2023-05-29T13:05:03;6.75;;;2.35;;
67049;SDS011;53955;52.442;13.284;2023-05-29T13:07:30;4.60;;;2.13;;
67049;SDS011;53955;52.442;13.284;2023-05-29T13:09:58;3.42;;;1.90;;
67049;SDS011;53955;52.442;13.284;2023-05-29T13:12:25;3.90;;;1.95;;
67049;SDS011;53955;52.442;13.284;2023-05-29T13:14:53;4.07;;;1.83;;
67049;SDS011;53955;52.442;13.284;2023-05-29T13:17:21;5.60;;;2.63;;
67049;SDS011;53955;52.442;13.284;2023-05-29T13:19:47;4.28;;;2.05;;
67049;SDS011;53955;52.442;13.284;2023-05-29T13:22:14;4.00;;;2.10;;
67049;SDS011;53955;52.442;13.284;2023-05-29T13:24:40;4.43;;;2.28;;
67049;SDS011;53955;52.442;13.284;2023-05-29T13:27:07;4.70;;;2.00;;
67049;SDS011;53955;52.442;13.284;2023-05-29T13:29:34;3.97;;;2.17;;
67049;SDS011;53955;52.442;13.284;2023-05-29T13:32:02;7.25;;;2.35;;
67049;SDS011;53955;52.442;13.284;2023-05-29T13:36:56;4.65;;;2.03;;
67049;SDS011;53955;52.442;13.284;2023-05-29T13:39:23;4.10;;;2.00;;
67049;SDS011;53955;52.442;13.284;2023-05-29T13:41:50;4.78;;;1.90;;
67049;SDS011;53955;52.442;13.284;2023-05-29T13:44:16;6.40;;;2.10;;
67049;SDS011;53955;52.442;13.284;2023-05-29T13:46:43;5.10;;;2.00;;
67049;SDS011;53955;52.442;13.284;2023-05-29T13:49:11;4.68;;;2.33;;
67049;SDS011;53955;52.442;13.284;2023-05-29T13:51:37;7.22;;;1.98;;
67049;SDS011;53955;52.442;13.284;2023-05-29T13:54:04;4.13;;;1.80;;
67049;SDS011;53955;52.442;13.284;2023-05-29T13:56:30;4.90;;;1.77;;
67049;SDS011;53955;52.442;13.284;2023-05-29T13:58:57;6.00;;;1.90;;
67049;SDS011;53955;52.442;13.284;2023-05-29T14:01:29;9.32;;;2.30;;
67049;SDS011;53955;52.442;13.284;2023-05-29T14:03:57;5.22;;;2.05;;
67049;SDS011;53955;52.442;13.284;2023-05-29T14:06:25;3.88;;;1.35;;
67049;SDS011;53955;52.442;13.284;2023-05-29T14:08:52;4.95;;;1.80;;
67049;SDS011;53955;52.442;13.284;2023-05-29T14:11:20;3.70;;;1.88;;
67049;SDS011;53955;52.442;13.284;2023-05-29T14:13:46;4.45;;;1.60;;
67049;SDS011;53955;52.442;13.284;2023-05-29T14:16:13;5.50;;;1.75;;
67049;SDS011;53955;52.442;13.284;2023-05-29T14:18:40;7.13;;;2.13;;
67049;SDS011;53955;52.442;13.284;2023-05-29T14:21:07;3.72;;;2.03;;
67049;SDS011;53955;52.442;13.284;2023-05-29T14:23:37;5.32;;;1.92;;
67049;SDS011;53955;52.442;13.284;2023-05-29T14:26:04;7.18;;;1.85;;
67049;SDS011;53955;52.442;13.284;2023-05-29T14:28:30;5.65;;;1.75;;
67049;SDS011;53955;52.442;13.284;2023-05-29T14:30:57;7.55;;;2.20;;
67049;SDS011;53955;52.442;13.284;2023-05-29T14:33:23;5.45;;;1.98;;
67049;SDS011;53955;52.442;13.284;2023-05-29T14:35:50;4.20;;;1.65;;
67049;SDS011;53955;52.442;13.284;2023-05-29T14:38:17;6.40;;;2.00;;
67049;SDS011;53955;52.442;13.284;2023-05-29T14:40:45;4.03;;;1.90;;
67049;SDS011;53955;52.442;13.284;2023-05-29T14:43:12;6.93;;;1.75;;
67049;SDS011;53955;52.442;13.284;2023-05-29T14:45:38;3.92;;;1.80;;
67049;SDS011;53955;52.442;13.284;2023-05-29T14:48:05;4.88;;;1.73;;
67049;SDS011;53955;52.442;13.284;2023-05-29T14:50:31;5.13;;;1.55;;
67049;SDS011;53955;52.442;13.284;2023-05-29T14:52:58;4.68;;;2.00;;
67049;SDS011;53955;52.442;13.284;2023-05-29T14:55:25;8.88;;;2.13;;
67049;SDS011;53955;52.442;13.284;2023-05-29T14:57:52;3.60;;;1.85;;
67049;SDS011;53955;52.442;13.284;2023-05-29T15:00:19;4.60;;;1.67;;
67049;SDS011;53955;52.442;13.284;2023-05-29T15:02:46;5.35;;;2.22;;
67049;SDS011;53955;52.442;13.284;2023-05-29T15:05:13;3.45;;;1.33;;
67049;SDS011;53955;52.442;13.284;2023-05-29T15:07:39;8.95;;;2.22;;
67049;SDS011;53955;52.442;13.284;2023-05-29T15:10:06;6.47;;;1.50;;
67049;SDS011;53955;52.442;13.284;2023-05-29T15:12:33;7.05;;;1.85;;
67049;SDS011;53955;52.442;13.284;2023-05-29T15:15:01;6.47;;;1.50;;
67049;SDS011;53955;52.442;13.284;2023-05-29T15:17:28;6.00;;;1.55;;
67049;SDS011;53955;52.442;13.284;2023-05-29T15:19:55;5.30;;;1.65;;
67049;SDS011;53955;52.442;13.284;2023-05-29T15:22:21;5.03;;;1.70;;